createdAt,value
2023-01-19T00:00:34.894Z,97245.02
2023-01-19T00:03:31.801Z,97244.25
2023-01-19T00:06:15.524Z,97243.73
2023-01-19T00:09:03.677Z,97247.23
2023-01-19T00:11:39.455Z,97255.86
2023-01-19T00:14:27.480Z,97263.76
2023-01-19T00:17:08.459Z,97269.27
2023-01-19T00:19:56.480Z,97264.66
2023-01-19T00:22:31.116Z,97261.10
2023-01-19T00:25:20.462Z,97263.97
2023-01-19T00:27:57.085Z,97265.88
2023-01-19T00:30:45.827Z,97277.25
2023-01-19T00:33:20.875Z,97277.91
2023-01-19T00:36:08.469Z,97275.83
2023-01-19T00:38:56.605Z,97276.30
2023-01-19T00:41:56.461Z,97276.55
2023-01-19T00:44:37.890Z,97270.76
2023-01-19T00:47:18.602Z,97267.98
2023-01-19T00:50:01.007Z,97272.67
2023-01-19T00:52:42.687Z,97270.86
2023-01-19T00:55:31.485Z,97265.16
2023-01-19T00:58:19.485Z,97255.59
2023-01-19T01:01:04.741Z,97256.55
2023-01-19T01:04:00.445Z,97258.15
2023-01-19T01:06:48.517Z,97256.98
2023-01-19T01:09:31.458Z,97251.73
2023-01-19T01:12:19.466Z,97255.87
2023-01-19T01:15:01.653Z,97250.63
2023-01-19T01:17:59.482Z,97251.48
2023-01-19T01:20:47.488Z,97250.73
2023-01-19T01:23:30.459Z,97244.56
2023-01-19T01:26:27.077Z,97241.36
2023-01-19T01:29:26.971Z,97234.27
2023-01-19T01:32:15.665Z,97232.34
2023-01-19T01:34:50.780Z,97229.14
2023-01-19T01:37:39.670Z,97226.35
2023-01-19T01:40:23.793Z,97232.15
2023-01-19T01:43:05.715Z,97234.31
2023-01-19T01:45:49.005Z,97231.11
2023-01-19T01:48:34.657Z,97228.85
2023-01-19T01:51:26.845Z,97230.10
2023-01-19T01:54:27.441Z,97223.43
2023-01-19T01:57:19.449Z,97223.86
2023-01-19T02:00:02.437Z,97224.67
2023-01-19T02:03:04.041Z,97225.88
2023-01-19T02:05:38.975Z,97223.58
2023-01-19T02:09:08.805Z,97224.92
2023-01-19T02:12:09.939Z,97223.08
2023-01-19T02:14:58.496Z,97217.56
2023-01-19T02:17:34.650Z,97215.11
2023-01-19T02:20:25.671Z,97216.18
2023-01-19T02:23:09.551Z,97219.29
2023-01-19T02:25:57.509Z,97218.91
2023-01-19T02:28:32.211Z,97217.23
2023-01-19T02:31:21.449Z,97214.29
2023-01-19T02:34:02.460Z,97214.23
2023-01-19T02:36:52.573Z,97213.15
2023-01-19T02:39:40.637Z,97211.23
2023-01-19T02:42:51.512Z,97205.80
2023-01-19T02:45:33.434Z,97201.66
2023-01-19T02:48:16.729Z,97203.25
2023-01-19T02:51:10.433Z,97206.27
2023-01-19T02:54:16.643Z,97201.95
2023-01-19T02:57:15.461Z,97200.02
2023-01-19T03:00:15.638Z,97203.63
2023-01-19T03:03:06.666Z,97203.56
2023-01-19T03:06:03.436Z,97208.22
2023-01-19T03:09:03.599Z,97215.16
2023-01-19T03:11:57.449Z,97213.73
2023-01-19T03:14:35.775Z,97216.15
2023-01-19T03:17:25.434Z,97219.17
2023-01-19T03:20:00.556Z,97225.02
2023-01-19T03:22:49.442Z,97223.78
2023-01-19T03:25:26.947Z,97222.77
2023-01-19T03:28:14.535Z,97219.78
2023-01-19T03:30:53.692Z,97223.54
2023-01-19T03:33:44.626Z,97224.16
2023-01-19T03:36:48.434Z,97217.78
2023-01-19T03:39:24.770Z,97221.95
2023-01-19T03:42:16.442Z,97225.23
2023-01-19T03:44:52.978Z,97229.02
2023-01-19T03:47:41.492Z,97231.65
2023-01-19T03:50:31.437Z,97230.15
2023-01-19T03:53:31.616Z,97231.20
2023-01-19T03:56:31.424Z,97233.98
2023-01-19T03:59:07.930Z,97233.77
2023-01-19T04:01:56.442Z,97236.05
2023-01-19T04:04:31.815Z,97236.59
2023-01-19T04:07:19.504Z,97241.63
2023-01-19T04:09:54.558Z,97239.77
2023-01-19T04:12:42.419Z,97242.90
2023-01-19T04:15:25.442Z,97241.48
2023-01-19T04:18:13.661Z,97245.54
2023-01-19T04:20:48.753Z,97249.80
2023-01-19T04:23:36.631Z,97241.09
2023-01-19T04:26:14.599Z,97238.05
2023-01-19T04:29:02.629Z,97232.52
2023-01-19T04:31:51.608Z,97222.33
2023-01-19T04:34:26.821Z,97214.08
2023-01-19T04:37:15.434Z,97215.89
2023-01-19T04:39:56.636Z,97213.03
2023-01-19T04:42:38.746Z,97219.00
2023-01-19T04:45:21.407Z,97224.92
2023-01-19T04:48:04.865Z,97235.38
2023-01-19T04:50:53.575Z,97241.95
2023-01-19T04:53:35.625Z,97248.08
2023-01-19T04:56:30.421Z,97250.00
2023-01-19T04:59:18.619Z,97251.11
2023-01-19T05:01:53.782Z,97260.39
2023-01-19T05:04:41.599Z,97277.75
2023-01-19T05:07:23.627Z,97284.52
2023-01-19T05:10:20.402Z,97292.77
2023-01-19T05:13:15.409Z,97299.92
2023-01-19T05:16:03.633Z,97314.08
2023-01-19T05:18:45.621Z,97316.64
2023-01-19T05:21:40.614Z,97316.02
2023-01-19T05:24:28.596Z,97313.73
2023-01-19T05:27:04.612Z,97315.27
2023-01-19T05:29:52.403Z,97317.02
2023-01-19T05:32:28.093Z,97309.92
2023-01-19T05:35:20.123Z,97314.19
2023-01-19T05:37:57.524Z,97322.45
2023-01-19T05:40:45.594Z,97334.01
2023-01-19T05:43:28.393Z,97339.08
2023-01-19T05:46:23.410Z,97346.65
2023-01-19T05:49:12.400Z,97352.77
2023-01-19T05:51:47.838Z,97353.97
2023-01-19T05:54:42.397Z,97357.00
2023-01-19T05:57:37.581Z,97357.12
2023-01-19T06:00:25.399Z,97348.64
2023-01-19T06:03:07.635Z,97342.45
2023-01-19T06:05:55.506Z,97339.49
2023-01-19T06:08:37.601Z,97344.00
2023-01-19T06:11:25.438Z,97356.84
2023-01-19T06:14:13.597Z,97367.29
2023-01-19T06:16:49.438Z,97368.48
2023-01-19T06:19:38.404Z,97376.08
2023-01-19T06:22:13.462Z,97368.90
2023-01-19T06:25:01.398Z,97350.13
2023-01-19T06:27:37.218Z,97357.67
2023-01-19T06:30:27.391Z,97354.54
2023-01-19T06:33:02.830Z,97335.25
2023-01-19T06:35:51.382Z,97346.95
2023-01-19T06:38:32.386Z,97369.96
2023-01-19T06:41:13.730Z,97387.66
2023-01-19T06:43:55.595Z,97375.58
2023-01-19T06:46:37.715Z,97387.93
2023-01-19T06:49:19.566Z,97398.48
2023-01-19T06:52:07.478Z,97397.58
2023-01-19T06:55:02.578Z,97394.54
2023-01-19T06:57:57.381Z,97392.11
2023-01-19T07:00:45.553Z,97394.52
2023-01-19T07:03:36.533Z,97388.38
2023-01-19T07:06:31.533Z,97381.72
2023-01-19T07:09:20.592Z,97386.73
2023-01-19T07:12:02.401Z,97400.60
2023-01-19T07:14:50.528Z,97405.55
2023-01-19T07:17:33.565Z,97414.61
2023-01-19T07:20:30.427Z,97423.23
2023-01-19T07:23:18.454Z,97423.36
2023-01-19T07:25:54.725Z,97422.11
2023-01-19T07:28:43.558Z,97422.97
2023-01-19T07:31:18.935Z,97427.77
2023-01-19T07:34:11.196Z,97426.86
2023-01-19T07:36:54.574Z,97432.33
2023-01-19T07:39:51.427Z,97426.41
2023-01-19T07:42:39.556Z,97420.91
2023-01-19T07:45:15.553Z,97424.24
2023-01-19T07:48:03.400Z,97428.42
2023-01-19T07:50:46.023Z,97417.80
2023-01-19T07:53:27.856Z,97418.64
2023-01-19T07:56:24.393Z,97419.55
2023-01-19T07:59:20.515Z,97416.74
2023-01-19T08:02:08.613Z,97399.87
2023-01-19T08:04:53.137Z,97396.29
2023-01-19T08:07:41.387Z,97411.42
2023-01-19T08:10:42.385Z,97413.02
2023-01-19T08:13:23.415Z,97408.40
2023-01-19T08:16:05.693Z,97415.95
2023-01-19T08:18:47.388Z,97424.09
2023-01-19T08:21:28.536Z,97422.34
2023-01-19T08:24:09.637Z,97422.91
2023-01-19T08:26:50.691Z,97428.67
2023-01-19T08:29:33.515Z,97433.24
2023-01-19T08:32:14.767Z,97437.58
2023-01-19T08:34:56.575Z,97451.91
2023-01-19T08:37:45.959Z,97456.53
2023-01-19T08:40:20.990Z,97447.92
2023-01-19T08:43:14.372Z,97438.23
2023-01-19T08:45:59.404Z,97435.73
2023-01-19T08:48:47.392Z,97443.02
2023-01-19T08:51:21.792Z,97435.09
2023-01-19T08:54:09.365Z,97431.27
2023-01-19T08:57:11.730Z,97439.79
2023-01-19T09:00:28.497Z,97434.52
2023-01-19T09:03:04.474Z,97426.45
2023-01-19T09:05:47.350Z,97428.98
2023-01-19T09:08:28.495Z,97426.97
2023-01-19T09:11:09.360Z,97427.08
2023-01-19T09:13:57.351Z,97428.65
2023-01-19T09:16:45.356Z,97421.17
2023-01-19T09:19:27.371Z,97409.16
2023-01-19T09:22:15.532Z,97405.92
2023-01-19T09:24:57.529Z,97398.86
2023-01-19T09:27:52.537Z,97405.04
2023-01-19T09:30:42.383Z,97411.39
2023-01-19T09:33:19.496Z,97415.71
2023-01-19T09:36:09.479Z,97421.77
2023-01-19T09:38:44.616Z,97429.05
2023-01-19T09:41:33.475Z,97426.73
2023-01-19T09:44:16.345Z,97423.10
2023-01-19T09:47:11.368Z,97421.58
2023-01-19T09:50:06.503Z,97421.88
2023-01-19T09:52:50.548Z,97412.27
2023-01-19T09:55:38.351Z,97405.91
2023-01-19T09:58:19.488Z,97402.60
2023-01-19T10:01:15.423Z,97409.08
2023-01-19T10:03:50.626Z,97407.21
2023-01-19T10:06:38.346Z,97411.16
2023-01-19T10:09:36.629Z,97406.02
2023-01-19T10:12:48.527Z,97405.61
2023-01-19T10:15:50.525Z,97411.25
2023-01-19T10:18:58.498Z,97408.64
2023-01-19T10:21:49.451Z,97397.27
2023-01-19T10:24:29.490Z,97386.66
2023-01-19T10:27:24.348Z,97384.56
2023-01-19T10:29:59.509Z,97383.64
2023-01-19T10:32:47.542Z,97375.25
2023-01-19T10:35:25.647Z,97371.26
2023-01-19T10:38:13.474Z,97372.59
2023-01-19T10:41:14.341Z,97368.27
2023-01-19T10:44:16.509Z,97374.88
2023-01-19T10:47:06.463Z,97371.25
2023-01-19T10:49:46.650Z,97369.82
2023-01-19T10:52:43.315Z,97366.20
2023-01-19T10:55:40.482Z,97362.93
2023-01-19T10:58:37.474Z,97361.15
2023-01-19T11:01:25.745Z,97358.02
2023-01-19T11:04:12.516Z,97355.16
2023-01-19T11:06:54.499Z,97364.42
2023-01-19T11:09:36.511Z,97369.52
2023-01-19T11:12:37.299Z,97361.73
2023-01-19T11:15:23.250Z,97354.05
2023-01-19T11:18:12.341Z,97348.52
2023-01-19T11:20:59.315Z,97345.58
2023-01-19T11:23:51.455Z,97342.13
2023-01-19T11:26:56.496Z,97339.39
2023-01-19T11:29:39.514Z,97330.46
2023-01-19T11:32:29.335Z,97334.89
2023-01-19T11:35:51.334Z,97341.98
2023-01-19T11:38:27.540Z,97343.29
2023-01-19T11:41:15.320Z,97335.90
2023-01-19T11:44:29.352Z,97333.13
2023-01-19T11:47:35.337Z,97324.53
2023-01-19T11:50:20.566Z,97319.29
2023-01-19T11:53:39.205Z,97321.73
2023-01-19T11:56:23.735Z,97330.61
2023-01-19T11:59:14.609Z,97338.10
2023-01-19T12:01:58.444Z,97328.34
2023-01-19T12:04:52.234Z,97326.47
2023-01-19T12:07:33.673Z,97332.09
2023-01-19T12:10:49.271Z,97336.36
2023-01-19T12:13:39.501Z,97332.55
2023-01-19T12:16:31.363Z,97329.73
2023-01-19T12:19:19.615Z,97329.02
2023-01-19T12:22:08.326Z,97326.08
2023-01-19T12:24:48.475Z,97321.98
2023-01-19T12:27:52.343Z,97315.86
2023-01-19T12:30:35.146Z,97313.30
2023-01-19T12:33:41.516Z,97314.98
2023-01-19T12:36:42.258Z,97327.36
2023-01-19T12:39:32.500Z,97337.02
2023-01-19T12:42:29.342Z,97342.52
2023-01-19T12:45:38.315Z,97346.24
2023-01-19T12:48:40.440Z,97349.83
2023-01-19T12:51:33.512Z,97350.99
2023-01-19T12:54:21.253Z,97353.60
2023-01-19T12:57:22.514Z,97357.04
2023-01-19T13:00:15.408Z,97353.88
2023-01-19T13:02:59.372Z,97356.88
2023-01-19T13:05:47.349Z,97357.61
2023-01-19T13:08:31.322Z,97358.10
2023-01-19T13:11:33.348Z,97358.88
2023-01-19T13:14:42.518Z,97361.73
2023-01-19T13:17:45.300Z,97364.56
2023-01-19T13:20:45.526Z,97365.70
2023-01-19T13:23:59.318Z,97358.17
2023-01-19T13:26:41.033Z,97359.70
2023-01-19T13:29:32.249Z,97366.73
2023-01-19T13:32:14.600Z,97363.84
2023-01-19T13:35:06.297Z,97358.52
2023-01-19T13:37:53.506Z,97360.39
2023-01-19T13:40:52.307Z,97358.14
2023-01-19T13:43:43.292Z,97362.70
2023-01-19T13:46:19.753Z,97367.86
2023-01-19T13:49:11.492Z,97375.04
2023-01-19T13:51:53.380Z,97376.55
2023-01-19T13:54:34.314Z,97378.58
2023-01-19T13:57:30.467Z,97382.55
2023-01-19T14:00:21.329Z,97392.23
2023-01-19T14:03:10.331Z,97393.20
2023-01-19T14:05:52.569Z,97397.58
2023-01-19T14:08:41.396Z,97402.55
2023-01-19T14:11:23.483Z,97407.79
2023-01-19T14:14:12.466Z,97409.58
2023-01-19T14:16:46.876Z,97413.25
2023-01-19T14:19:35.498Z,97412.35
2023-01-19T14:22:10.189Z,97414.67
2023-01-19T14:24:59.482Z,97415.71
2023-01-19T14:27:43.351Z,97417.48
2023-01-19T14:30:36.293Z,97417.13
2023-01-19T14:33:35.165Z,97416.29
2023-01-19T14:36:37.497Z,97417.36
2023-01-19T14:39:34.503Z,97419.41
2023-01-19T14:42:29.275Z,97421.56
2023-01-19T14:45:07.651Z,97427.42
2023-01-19T14:48:25.486Z,97427.58
2023-01-19T14:51:08.612Z,97430.27
2023-01-19T14:54:05.310Z,97431.78
2023-01-19T14:56:41.605Z,97428.90
2023-01-19T14:59:29.521Z,97431.23
2023-01-19T15:02:05.158Z,97431.27
2023-01-19T15:04:55.520Z,97430.95
2023-01-19T15:07:39.478Z,97433.80
2023-01-19T15:10:36.375Z,97435.49
2023-01-19T15:13:28.267Z,97436.13
2023-01-19T15:16:04.570Z,97436.54
2023-01-19T15:19:13.482Z,97443.86
2023-01-19T15:22:02.339Z,97445.83
2023-01-19T15:24:44.491Z,97443.31
2023-01-19T15:27:32.474Z,97442.27
2023-01-19T15:30:22.468Z,97445.16
2023-01-19T15:33:11.276Z,97445.71
2023-01-19T15:35:47.265Z,97453.63
2023-01-19T15:38:36.486Z,97459.31
2023-01-19T15:41:16.231Z,97460.23
2023-01-19T15:44:05.480Z,97461.75
2023-01-19T15:46:40.743Z,97461.19
2023-01-19T15:49:28.479Z,97464.52
2023-01-19T15:52:10.318Z,97466.88
2023-01-19T15:55:01.644Z,97469.35
2023-01-19T15:57:51.327Z,97473.48
2023-01-19T16:00:47.609Z,97474.89
2023-01-19T16:03:35.272Z,97479.13
2023-01-19T16:06:10.626Z,97483.28
2023-01-19T16:08:58.452Z,97483.95
2023-01-19T16:11:38.806Z,97484.29
2023-01-19T16:14:26.271Z,97486.77
2023-01-19T16:17:02.234Z,97490.92
2023-01-19T16:19:50.473Z,97493.48
2023-01-19T16:22:25.784Z,97492.69
2023-01-19T16:25:14.279Z,97494.52
2023-01-19T16:27:56.457Z,97494.05
2023-01-19T16:30:51.287Z,97493.69
2023-01-19T16:33:46.447Z,97496.13
2023-01-19T16:36:30.869Z,97500.70
2023-01-19T16:39:30.255Z,97500.58
2023-01-19T16:42:04.731Z,97502.77
2023-01-19T16:44:53.465Z,97500.61
2023-01-19T16:47:28.916Z,97500.38
2023-01-19T16:50:21.382Z,97501.77
2023-01-19T16:52:59.457Z,97504.89
2023-01-19T16:55:59.203Z,97503.65
2023-01-19T16:58:55.463Z,97501.09
2023-01-19T17:01:46.558Z,97500.40
2023-01-19T17:04:28.303Z,97498.89
2023-01-19T17:07:09.791Z,97499.16
2023-01-19T17:09:59.259Z,97497.14
2023-01-19T17:12:38.335Z,97498.61
2023-01-19T17:15:26.481Z,97499.96
2023-01-19T17:18:01.871Z,97501.96
2023-01-19T17:20:51.255Z,97500.54
2023-01-19T17:23:32.421Z,97499.09
2023-01-19T17:26:13.505Z,97503.84
2023-01-19T17:28:55.462Z,97505.45
2023-01-19T17:31:37.481Z,97508.08
2023-01-19T17:34:19.267Z,97517.08
2023-01-19T17:37:04.857Z,97518.89
2023-01-19T17:39:50.286Z,97525.61
2023-01-19T17:42:35.380Z,97531.33
2023-01-19T17:45:23.278Z,97534.73
2023-01-19T17:48:11.259Z,97533.17
2023-01-19T17:50:49.607Z,97532.98
2023-01-19T17:53:38.466Z,97526.85
2023-01-19T17:56:29.260Z,97524.58
2023-01-19T17:59:19.447Z,97522.42
2023-01-19T18:02:01.319Z,97528.14
2023-01-19T18:04:45.795Z,97529.39
2023-01-19T18:07:35.250Z,97536.86
2023-01-19T18:10:17.400Z,97543.90
2023-01-19T18:12:58.663Z,97548.31
2023-01-19T18:15:40.238Z,97551.92
2023-01-19T18:18:26.657Z,97551.35
2023-01-19T18:21:11.245Z,97553.40
2023-01-19T18:23:52.458Z,97547.95
2023-01-19T18:26:36.386Z,97543.31
2023-01-19T18:29:19.792Z,97548.11
2023-01-19T18:32:06.752Z,97557.36
2023-01-19T18:35:00.267Z,97558.79
2023-01-19T18:37:34.746Z,97555.23
2023-01-19T18:40:31.803Z,97561.39
2023-01-19T18:43:15.431Z,97563.48
2023-01-19T18:45:56.614Z,97561.61
2023-01-19T18:48:43.427Z,97566.36
2023-01-19T18:51:25.486Z,97567.60
2023-01-19T18:54:08.869Z,97571.67
2023-01-19T18:57:14.174Z,97567.00
2023-01-19T19:00:03.297Z,97561.55
2023-01-19T19:02:46.347Z,97556.51
2023-01-19T19:05:41.599Z,97550.36
2023-01-19T19:08:30.374Z,97541.51
2023-01-19T19:11:05.419Z,97535.18
2023-01-19T19:13:53.278Z,97527.83
2023-01-19T19:16:36.645Z,97523.58
2023-01-19T19:19:34.630Z,97526.65
2023-01-19T19:22:25.378Z,97542.38
2023-01-19T19:25:00.769Z,97558.27
2023-01-19T19:27:59.817Z,97575.10
2023-01-19T19:30:39.273Z,97587.43
2023-01-19T19:33:29.126Z,97598.58
2023-01-19T19:36:06.104Z,97608.86
2023-01-19T19:38:55.458Z,97614.31
2023-01-19T19:41:41.994Z,97619.11
2023-01-19T19:44:37.176Z,97620.29
2023-01-19T19:47:26.443Z,97619.66
2023-01-19T19:50:02.636Z,97623.05
2023-01-19T19:52:57.470Z,97624.06
2023-01-19T19:55:32.737Z,97629.15
2023-01-19T19:58:27.120Z,97631.75
2023-01-19T20:01:15.627Z,97638.98
2023-01-19T20:04:07.815Z,97641.27
2023-01-19T20:06:51.937Z,97643.56
2023-01-19T20:09:47.401Z,97647.23
2023-01-19T20:12:33.427Z,97656.32
2023-01-19T20:15:28.262Z,97661.24
2023-01-19T20:18:22.609Z,97673.65
2023-01-19T20:21:02.225Z,97686.62
2023-01-19T20:23:53.359Z,97690.19
2023-01-19T20:26:32.362Z,97693.87
2023-01-19T20:29:25.332Z,97697.02
2023-01-19T20:32:11.549Z,97703.56
2023-01-19T20:34:59.230Z,97711.83
2023-01-19T20:37:35.949Z,97717.63
2023-01-19T20:40:26.219Z,97718.05
2023-01-19T20:43:02.359Z,97715.80
2023-01-19T20:45:52.291Z,97714.05
2023-01-19T20:48:27.520Z,97720.69
2023-01-19T20:51:18.330Z,97718.32
2023-01-19T20:53:54.563Z,97718.27
2023-01-19T20:56:55.020Z,97722.80
2023-01-19T20:59:45.227Z,97729.31
2023-01-19T21:02:33.322Z,97732.67
2023-01-19T21:05:15.419Z,97734.21
2023-01-19T21:07:58.950Z,97726.60
2023-01-19T21:10:41.248Z,97728.63
2023-01-19T21:13:23.219Z,97736.62
2023-01-19T21:16:07.301Z,97743.67
2023-01-19T21:18:50.672Z,97749.34
2023-01-19T21:21:33.206Z,97748.65
2023-01-19T21:24:17.495Z,97755.15
2023-01-19T21:26:59.289Z,97754.09
2023-01-19T21:29:41.465Z,97746.23
2023-01-19T21:32:23.195Z,97750.57
2023-01-19T21:35:04.483Z,97745.33
2023-01-19T21:37:46.227Z,97738.34
2023-01-19T21:40:27.308Z,97745.09
2023-01-19T21:43:09.254Z,97745.98
2023-01-19T21:45:57.256Z,97745.83
2023-01-19T21:48:31.801Z,97751.03
2023-01-19T21:51:22.854Z,97758.18
2023-01-19T21:54:06.516Z,97770.35
2023-01-19T21:57:02.192Z,97773.78
2023-01-19T21:59:43.588Z,97776.42
2023-01-19T22:02:38.487Z,97781.91
2023-01-19T22:05:20.175Z,97786.10
2023-01-19T22:08:01.810Z,97789.21
2023-01-19T22:10:44.181Z,97796.34
2023-01-19T22:13:25.294Z,97805.14
2023-01-19T22:16:10.189Z,97811.59
2023-01-19T22:18:57.862Z,97817.19
2023-01-19T22:21:42.195Z,97825.20
2023-01-19T22:24:23.302Z,97825.88
2023-01-19T22:27:04.202Z,97821.83
2023-01-19T22:29:55.188Z,97825.70
2023-01-19T22:32:29.662Z,97833.27
2023-01-19T22:35:17.175Z,97835.70
2023-01-19T22:37:51.577Z,97836.77
2023-01-19T22:40:39.330Z,97836.05
2023-01-19T22:43:21.165Z,97836.99
2023-01-19T22:46:09.230Z,97845.31
2023-01-19T22:48:50.181Z,97851.64
2023-01-19T22:51:32.324Z,97856.48
2023-01-19T22:54:13.188Z,97859.95
2023-01-19T22:57:01.188Z,97852.08
2023-01-19T22:59:56.187Z,97853.75
2023-01-19T23:02:44.182Z,97857.02
2023-01-19T23:05:19.297Z,97851.10
2023-01-19T23:08:07.173Z,97851.56
2023-01-19T23:10:46.295Z,97853.93
2023-01-19T23:13:34.383Z,97845.98
2023-01-19T23:16:09.303Z,97846.83
2023-01-19T23:19:01.153Z,97859.67
2023-01-19T23:21:44.186Z,97874.63
2023-01-19T23:24:32.164Z,97880.02
2023-01-19T23:27:14.173Z,97883.80
2023-01-19T23:30:09.370Z,97892.86
2023-01-19T23:32:58.195Z,97892.26
2023-01-19T23:35:40.372Z,97894.85
2023-01-19T23:38:30.350Z,97895.50
2023-01-19T23:41:19.173Z,97893.83
2023-01-19T23:43:53.814Z,97898.09
2023-01-19T23:46:43.175Z,97899.22
2023-01-19T23:49:18.868Z,97902.05
2023-01-19T23:52:08.371Z,97901.63
2023-01-19T23:54:46.086Z,97899.71
2023-01-19T23:57:34.350Z,97898.73
